Time;durP1;ratioP1;P1;durP2;ratioP2;P2;SDS_P1;SDS_P2;PMS_P1;PMS_P2;Temp;Humidity;BMP_temperature;BMP_pressure;BME280_temperature;BME280_humidity;BME280_pressure;Samples;Min_cycle;Max_cycle;Signal;HPM_P1;HPM_P2
2022/05/03 00:00:37;;;;;;;;;;;9.50;99.90;;;;;;5073239;28;19912;-83
2022/05/03 00:03:11;;;;;;;;;;;9.50;99.90;;;;;;5023999;28;19956;-83
2022/05/03 00:05:37;;;;;;;;;;;9.50;99.90;;;;;;5063955;28;19917;-83
2022/05/03 00:08:03;;;;;;;;;;;9.50;99.90;;;;;;5055623;28;20402;-84
2022/05/03 00:10:50;;;;;;;;;;;9.40;99.90;;;;;;5044973;28;19924;-83
2022/05/03 00:13:19;;;;;;;;;;;9.30;99.90;;;;;;5066696;28;19919;-83
2022/05/03 00:15:45;;;;;;;;;;;9.30;99.90;;;;;;5060117;28;19913;-83
2022/05/03 00:18:11;;;;;;;;;;;9.30;99.90;;;;;;5054849;28;19915;-83
2022/05/03 00:20:37;;;;;;;;;;;9.30;99.90;;;;;;5035116;28;19917;-83
2022/05/03 00:23:03;;;;;;;;;;;9.20;99.90;;;;;;5052212;28;19909;-84
2022/05/03 00:25:30;;;;;;;;;;;9.20;99.90;;;;;;5058528;28;19921;-84
2022/05/03 00:27:55;;;;;;;;;;;9.20;99.90;;;;;;5060460;28;19935;-83
2022/05/03 00:30:21;;;;;;;;;;;9.20;99.90;;;;;;5035129;28;19925;-83
2022/05/03 00:32:47;;;;;;;;;;;9.10;99.90;;;;;;5037280;28;19976;-83
2022/05/03 00:35:12;;;;;;;;;;;9.10;99.90;;;;;;5067243;28;19919;-84
2022/05/03 00:37:38;;;;;;;;;;;9.10;99.90;;;;;;5065383;28;19927;-84
2022/05/03 00:40:05;;;;;;;;;;;9.10;99.90;;;;;;5066102;28;19921;-84
2022/05/03 00:43:00;;;;;;;;;;;9.10;99.90;;;;;;5043083;28;19913;-84
2022/05/03 00:45:25;;;;;;;;;;;9.20;99.90;;;;;;5046665;28;19925;-83
2022/05/03 00:47:52;;;;;;;;;;;9.20;99.90;;;;;;5059419;28;19928;-83
2022/05/03 00:50:33;;;;;;;;;;;9.20;99.90;;;;;;5051495;28;19939;-83
2022/05/03 00:53:02;;;;;;;;;;;9.30;99.90;;;;;;5067006;28;20303;-83
2022/05/03 00:55:36;;;;;;;;;;;9.30;99.90;;;;;;5060569;28;19913;-84
2022/05/03 00:58:17;;;;;;;;;;;9.30;99.90;;;;;;5074264;28;19967;-83
2022/05/03 01:00:56;;;;;;;;;;;9.30;99.90;;;;;;5038833;28;19913;-83
2022/05/03 01:03:31;;;;;;;;;;;9.40;99.90;;;;;;5056874;28;19909;-84
2022/05/03 01:06:09;;;;;;;;;;;9.40;99.90;;;;;;5072428;28;19921;-84
2022/05/03 01:08:41;;;;;;;;;;;9.40;99.90;;;;;;5060834;28;19913;-83
2022/05/03 01:11:10;;;;;;;;;;;9.40;99.90;;;;;;5058384;28;20431;-83
2022/05/03 01:13:45;;;;;;;;;;;9.30;99.90;;;;;;5058896;28;19909;-84
2022/05/03 01:16:23;;;;;;;;;;;9.30;99.90;;;;;;5075334;28;19917;-83
2022/05/03 01:18:54;;;;;;;;;;;9.30;99.90;;;;;;5061547;28;20398;-84
2022/05/03 01:21:52;;;;;;;;;;;9.30;99.90;;;;;;5045412;28;20278;-83
2022/05/03 01:24:33;;;;;;;;;;;9.30;99.90;;;;;;5026174;28;19956;-83
2022/05/03 01:27:17;;;;;;;;;;;9.30;99.90;;;;;;5057192;28;19975;-83
2022/05/03 01:29:45;;;;;;;;;;;9.30;99.90;;;;;;5056312;28;20122;-84
2022/05/03 01:32:11;;;;;;;;;;;9.30;99.90;;;;;;5059754;28;19999;-83
2022/05/03 01:34:40;;;;;;;;;;;9.30;99.90;;;;;;5061547;28;19920;-83
2022/05/03 01:37:24;;;;;;;;;;;9.30;99.90;;;;;;5046860;28;19913;-83
2022/05/03 01:40:04;;;;;;;;;;;9.30;99.90;;;;;;5045065;28;20091;-83
2022/05/03 01:42:42;;;;;;;;;;;9.30;99.90;;;;;;5042753;28;20429;-83
2022/05/03 01:47:59;;;;;;;;;;;9.30;99.90;;;;;;5086123;28;20395;-84
2022/05/03 01:50:25;;;;;;;;;;;9.20;99.90;;;;;;5091025;28;19916;-84
2022/05/03 01:52:56;;;;;;;;;;;9.20;99.90;;;;;;5073192;28;19919;-84
2022/05/03 01:55:24;;;;;;;;;;;9.10;99.90;;;;;;5092524;28;19912;-84
2022/05/03 01:57:53;;;;;;;;;;;9.10;99.90;;;;;;5072033;28;19916;-84
2022/05/03 02:00:20;;;;;;;;;;;9.00;99.90;;;;;;5072969;28;19961;-84
2022/05/03 02:02:49;;;;;;;;;;;9.00;99.90;;;;;;5062400;28;19973;-84
2022/05/03 02:05:19;;;;;;;;;;;9.00;99.90;;;;;;5073568;28;20003;-84
2022/05/03 02:07:57;;;;;;;;;;;9.10;99.90;;;;;;5050805;28;19919;-84
2022/05/03 02:10:33;;;;;;;;;;;9.10;99.90;;;;;;5086950;28;19908;-84
2022/05/03 02:13:04;;;;;;;;;;;9.10;99.90;;;;;;5066262;28;19913;-84
2022/05/03 02:15:38;;;;;;;;;;;9.00;99.90;;;;;;5054159;28;20337;-84
2022/05/03 02:18:05;;;;;;;;;;;9.00;99.90;;;;;;5053462;28;19928;-84
2022/05/03 02:20:36;;;;;;;;;;;9.00;99.90;;;;;;5070185;28;19916;-84
2022/05/03 02:23:15;;;;;;;;;;;9.00;99.90;;;;;;5067295;28;19944;-84
2022/05/03 02:25:43;;;;;;;;;;;9.00;99.90;;;;;;5078844;28;20383;-84
2022/05/03 02:28:08;;;;;;;;;;;9.00;99.90;;;;;;5068749;28;20441;-84
2022/05/03 02:30:35;;;;;;;;;;;9.00;99.90;;;;;;5073530;28;19912;-85
2022/05/03 02:33:17;;;;;;;;;;;9.00;99.90;;;;;;5075903;28;19916;-85
2022/05/03 02:35:48;;;;;;;;;;;9.00;99.90;;;;;;5063280;28;19916;-85
2022/05/03 02:38:17;;;;;;;;;;;8.90;99.90;;;;;;5089127;28;19912;-84
2022/05/03 02:40:44;;;;;;;;;;;8.90;99.90;;;;;;5094517;28;19912;-85
2022/05/03 02:43:12;;;;;;;;;;;8.80;99.90;;;;;;5102293;28;19920;-85
2022/05/03 02:45:40;;;;;;;;;;;8.80;99.90;;;;;;5062453;28;19939;-85
2022/05/03 02:48:06;;;;;;;;;;;8.80;99.90;;;;;;5056506;28;20265;-85
2022/05/03 02:50:53;;;;;;;;;;;8.70;99.90;;;;;;5092039;28;19994;-85
2022/05/03 02:53:18;;;;;;;;;;;8.70;99.90;;;;;;5095043;28;19950;-85
2022/05/03 02:55:51;;;;;;;;;;;8.70;99.90;;;;;;5089012;28;20435;-85
2022/05/03 02:58:41;;;;;;;;;;;8.70;99.90;;;;;;5058393;28;19920;-85
2022/05/03 03:04:28;;;;;;;;;;;8.80;99.90;;;;;;5081372;28;20452;-84
2022/05/03 03:06:55;;;;;;;;;;;8.80;99.90;;;;;;5073079;28;20308;-84
2022/05/03 03:09:39;;;;;;;;;;;8.70;99.90;;;;;;5055295;28;19917;-84
2022/05/03 03:12:08;;;;;;;;;;;8.80;99.90;;;;;;5068851;28;20368;-84
2022/05/03 03:14:39;;;;;;;;;;;8.70;99.90;;;;;;5083008;28;20380;-84
2022/05/03 03:17:06;;;;;;;;;;;8.70;99.90;;;;;;5069366;28;19916;-84
2022/05/03 03:19:38;;;;;;;;;;;8.70;99.90;;;;;;5051906;28;19931;-84
2022/05/03 03:22:07;;;;;;;;;;;8.70;99.90;;;;;;5086308;28;20060;-84
2022/05/03 03:24:34;;;;;;;;;;;8.70;99.90;;;;;;5085943;28;20004;-84
2022/05/03 03:27:01;;;;;;;;;;;8.70;99.90;;;;;;5054555;28;20423;-84
2022/05/03 03:29:27;;;;;;;;;;;8.60;99.90;;;;;;5052056;28;19913;-84
2022/05/03 03:31:53;;;;;;;;;;;8.60;99.90;;;;;;5081117;28;19958;-84
2022/05/03 03:34:20;;;;;;;;;;;8.60;99.90;;;;;;5042384;28;20145;-84
2022/05/03 03:36:49;;;;;;;;;;;8.60;99.90;;;;;;5087898;28;20288;-84
2022/05/03 03:39:14;;;;;;;;;;;8.60;99.90;;;;;;5072247;28;20336;-85
2022/05/03 03:41:41;;;;;;;;;;;8.60;99.90;;;;;;5069031;28;19916;-84
2022/05/03 03:44:06;;;;;;;;;;;8.60;99.90;;;;;;5055114;28;19969;-84
2022/05/03 03:46:32;;;;;;;;;;;8.60;99.90;;;;;;5059383;28;19925;-84
2022/05/03 03:48:58;;;;;;;;;;;8.60;99.90;;;;;;5087461;28;19923;-84
2022/05/03 03:51:24;;;;;;;;;;;8.60;99.90;;;;;;5088298;28;20944;-84
2022/05/03 03:53:50;;;;;;;;;;;8.60;99.90;;;;;;5036113;28;19924;-85
2022/05/03 03:56:15;;;;;;;;;;;8.70;99.90;;;;;;5071015;28;19987;-84
2022/05/03 03:58:41;;;;;;;;;;;8.70;99.90;;;;;;5052639;28;19920;-84
2022/05/03 04:01:09;;;;;;;;;;;8.80;99.90;;;;;;5065212;28;19917;-84
2022/05/03 04:03:37;;;;;;;;;;;8.80;99.90;;;;;;5035948;28;20315;-84
2022/05/03 04:06:03;;;;;;;;;;;8.80;99.90;;;;;;5060205;28;20284;-84
2022/05/03 04:08:28;;;;;;;;;;;8.90;99.90;;;;;;5051195;28;20288;-84
2022/05/03 04:10:54;;;;;;;;;;;8.90;99.90;;;;;;5035629;28;19917;-84
2022/05/03 04:13:19;;;;;;;;;;;9.00;99.90;;;;;;5085319;28;19916;-85
2022/05/03 04:15:45;;;;;;;;;;;9.00;99.90;;;;;;5056255;28;20419;-85
2022/05/03 04:18:10;;;;;;;;;;;9.10;99.90;;;;;;5051620;28;19973;-85
2022/05/03 04:20:36;;;;;;;;;;;9.10;99.90;;;;;;5061433;28;19912;-84
2022/05/03 04:23:02;;;;;;;;;;;9.10;99.90;;;;;;5059906;28;19921;-84
2022/05/03 04:25:27;;;;;;;;;;;9.10;99.90;;;;;;5055885;28;20434;-84
2022/05/03 04:27:53;;;;;;;;;;;9.20;99.90;;;;;;5056353;28;19971;-84
2022/05/03 04:30:18;;;;;;;;;;;9.30;99.90;;;;;;5047937;28;19960;-85
2022/05/03 04:32:44;;;;;;;;;;;9.30;99.90;;;;;;5075502;28;19944;-84
2022/05/03 04:35:10;;;;;;;;;;;9.40;99.90;;;;;;5074073;28;19951;-85
2022/05/03 04:37:35;;;;;;;;;;;9.40;99.90;;;;;;5060560;28;19920;-85
2022/05/03 04:40:01;;;;;;;;;;;9.50;99.90;;;;;;5055100;28;19955;-84
2022/05/03 04:42:26;;;;;;;;;;;9.50;99.90;;;;;;5055714;28;19920;-85
2022/05/03 04:44:52;;;;;;;;;;;9.60;99.90;;;;;;5091536;28;20049;-84
2022/05/03 04:47:17;;;;;;;;;;;9.60;99.90;;;;;;5093761;28;19978;-84
2022/05/03 04:49:43;;;;;;;;;;;9.60;99.90;;;;;;5056621;28;19920;-84
2022/05/03 04:52:08;;;;;;;;;;;9.70;99.90;;;;;;5075588;28;19920;-84
2022/05/03 04:54:37;;;;;;;;;;;9.60;99.90;;;;;;5074044;28;19922;-84
2022/05/03 04:57:04;;;;;;;;;;;9.70;99.90;;;;;;5039152;28;20281;-84
2022/05/03 04:59:30;;;;;;;;;;;9.70;99.90;;;;;;5039337;28;20337;-84
2022/05/03 05:01:55;;;;;;;;;;;9.70;99.90;;;;;;5060416;28;19923;-85
2022/05/03 05:04:21;;;;;;;;;;;9.80;99.90;;;;;;5076598;28;19966;-85
2022/05/03 05:06:46;;;;;;;;;;;9.90;99.90;;;;;;5076529;28;19912;-85
2022/05/03 05:09:11;;;;;;;;;;;9.90;99.90;;;;;;5059615;28;19916;-85
2022/05/03 05:11:37;;;;;;;;;;;10.00;99.90;;;;;;5068060;28;20391;-85
2022/05/03 05:14:03;;;;;;;;;;;10.00;99.90;;;;;;5059991;28;20011;-85
2022/05/03 05:16:28;;;;;;;;;;;10.10;99.90;;;;;;5076552;28;19920;-85
2022/05/03 05:18:54;;;;;;;;;;;10.10;99.90;;;;;;5059415;28;19975;-85
2022/05/03 05:21:19;;;;;;;;;;;10.20;99.90;;;;;;5077078;28;20008;-85
2022/05/03 05:23:44;;;;;;;;;;;10.20;99.90;;;;;;5076862;28;19908;-85
2022/05/03 05:26:11;;;;;;;;;;;10.30;99.90;;;;;;5080830;28;19981;-85
2022/05/03 05:28:36;;;;;;;;;;;10.40;99.90;;;;;;5076164;28;19919;-85
2022/05/03 05:31:02;;;;;;;;;;;10.50;99.90;;;;;;5058600;28;20403;-85
2022/05/03 05:33:27;;;;;;;;;;;10.60;99.90;;;;;;5065860;28;20006;-85
2022/05/03 05:35:53;;;;;;;;;;;10.70;99.90;;;;;;5041212;28;19991;-85
2022/05/03 05:38:18;;;;;;;;;;;10.70;99.90;;;;;;5046852;28;19922;-85
2022/05/03 05:40:44;;;;;;;;;;;10.80;99.90;;;;;;5074408;28;20000;-85
2022/05/03 05:43:10;;;;;;;;;;;10.90;99.90;;;;;;5071912;28;19942;-85
2022/05/03 05:45:37;;;;;;;;;;;11.00;99.90;;;;;;5073839;28;19917;-86
2022/05/03 05:48:02;;;;;;;;;;;11.10;99.90;;;;;;5075375;28;19924;-85
2022/05/03 05:50:28;;;;;;;;;;;11.20;99.90;;;;;;5049666;28;19974;-86
2022/05/03 05:55:38;;;;;;;;;;;11.40;99.90;;;;;;5080522;28;19973;-85
2022/05/03 05:58:04;;;;;;;;;;;11.50;99.90;;;;;;5047934;28;19924;-85
2022/05/03 06:00:29;;;;;;;;;;;11.70;99.90;;;;;;5072257;28;19915;-85
2022/05/03 06:02:55;;;;;;;;;;;11.80;99.90;;;;;;5058846;28;19946;-85
2022/05/03 06:05:20;;;;;;;;;;;11.90;99.90;;;;;;5065254;28;19921;-85
2022/05/03 06:07:46;;;;;;;;;;;12.00;99.90;;;;;;5070292;28;19946;-86
2022/05/03 06:10:11;;;;;;;;;;;12.00;99.90;;;;;;5047067;28;19916;-85
2022/05/03 06:12:37;;;;;;;;;;;12.00;99.90;;;;;;5070323;28;19916;-85
2022/05/03 06:15:02;;;;;;;;;;;12.10;99.90;;;;;;5072489;28;19931;-85
2022/05/03 06:17:28;;;;;;;;;;;12.10;99.90;;;;;;5057006;28;19923;-85
2022/05/03 06:19:53;;;;;;;;;;;12.10;99.90;;;;;;5071570;28;19923;-85
2022/05/03 06:22:20;;;;;;;;;;;12.20;99.90;;;;;;5073783;28;19912;-85
2022/05/03 06:24:47;;;;;;;;;;;12.20;99.90;;;;;;5092323;28;19963;-85
2022/05/03 06:27:15;;;;;;;;;;;12.30;99.90;;;;;;5064611;28;20380;-85
2022/05/03 06:29:42;;;;;;;;;;;12.40;99.90;;;;;;5071422;28;19918;-85
2022/05/03 06:32:11;;;;;;;;;;;12.50;99.90;;;;;;5042312;28;20313;-85
2022/05/03 06:34:37;;;;;;;;;;;12.60;99.90;;;;;;5073022;28;19912;-84
2022/05/03 06:37:03;;;;;;;;;;;12.70;99.90;;;;;;5045193;28;20387;-84
2022/05/03 06:39:29;;;;;;;;;;;12.90;99.90;;;;;;5060050;28;19928;-85
2022/05/03 06:41:55;;;;;;;;;;;12.90;99.90;;;;;;5066190;28;20025;-84
2022/05/03 06:44:20;;;;;;;;;;;13.00;99.90;;;;;;5088924;28;19916;-84
2022/05/03 06:46:46;;;;;;;;;;;13.00;99.90;;;;;;5041478;28;20027;-84
2022/05/03 06:49:11;;;;;;;;;;;13.10;99.90;;;;;;5056096;28;19935;-85
2022/05/03 06:51:37;;;;;;;;;;;13.20;99.90;;;;;;5067369;28;20014;-85
2022/05/03 06:54:03;;;;;;;;;;;13.30;99.90;;;;;;5053447;28;19908;-84
2022/05/03 06:56:35;;;;;;;;;;;13.30;99.90;;;;;;5053442;28;19915;-85
2022/05/03 06:59:02;;;;;;;;;;;13.30;99.90;;;;;;5053313;28;20338;-85
2022/05/03 07:01:27;;;;;;;;;;;13.30;99.90;;;;;;5055864;28;19921;-85
2022/05/03 07:03:52;;;;;;;;;;;13.40;99.90;;;;;;5040667;28;19923;-84
2022/05/03 07:06:21;;;;;;;;;;;13.40;99.90;;;;;;5054444;28;19946;-84
2022/05/03 07:08:47;;;;;;;;;;;13.40;99.90;;;;;;5056130;28;20007;-85
2022/05/03 07:11:12;;;;;;;;;;;13.40;99.90;;;;;;5066667;28;20003;-85
2022/05/03 07:13:37;;;;;;;;;;;13.40;99.90;;;;;;5035968;28;19959;-85
2022/05/03 07:16:03;;;;;;;;;;;13.50;99.90;;;;;;5053931;28;19923;-85
2022/05/03 07:23:57;;;;;;;;;;;13.70;99.90;;;;;;5069912;28;19923;-85
2022/05/03 07:26:23;;;;;;;;;;;13.80;99.90;;;;;;5070861;28;19909;-85
2022/05/03 07:28:49;;;;;;;;;;;13.80;99.90;;;;;;5052436;28;19931;-85
2022/05/03 07:31:18;;;;;;;;;;;13.90;99.90;;;;;;5043292;28;20380;-85
2022/05/03 07:33:44;;;;;;;;;;;13.90;99.90;;;;;;5087581;28;19916;-84
2022/05/03 07:36:10;;;;;;;;;;;14.00;99.90;;;;;;5069046;28;19916;-85
2022/05/03 07:38:35;;;;;;;;;;;14.00;99.90;;;;;;5070597;28;19912;-85
2022/05/03 07:41:01;;;;;;;;;;;14.10;99.90;;;;;;5064760;28;20309;-84
2022/05/03 07:43:27;;;;;;;;;;;14.20;99.90;;;;;;5055221;28;19924;-84
2022/05/03 07:45:52;;;;;;;;;;;14.30;99.90;;;;;;5092644;22;19982;-83
2022/05/03 07:48:18;;;;;;;;;;;14.40;98.00;;;;;;5061033;28;19917;-84
2022/05/03 07:50:44;;;;;;;;;;;14.50;97.30;;;;;;5052864;28;20022;-84
2022/05/03 07:53:09;;;;;;;;;;;14.60;97.50;;;;;;5049381;28;20371;-84
2022/05/03 07:55:35;;;;;;;;;;;14.60;95.00;;;;;;5040845;28;19925;-85
2022/05/03 07:58:00;;;;;;;;;;;14.70;93.40;;;;;;5036744;28;19913;-83
2022/05/03 08:00:26;;;;;;;;;;;14.70;93.60;;;;;;5050444;28;19942;-84
2022/05/03 08:02:52;;;;;;;;;;;14.70;93.80;;;;;;5048609;28;19916;-84
2022/05/03 08:05:17;;;;;;;;;;;14.80;93.30;;;;;;5050525;28;19925;-83
2022/05/03 08:07:44;;;;;;;;;;;14.80;91.80;;;;;;5032809;28;19967;-83
2022/05/03 08:10:09;;;;;;;;;;;14.90;91.90;;;;;;5057904;28;19919;-83
2022/05/03 08:12:35;;;;;;;;;;;15.00;91.60;;;;;;5058266;28;20015;-83
2022/05/03 08:15:01;;;;;;;;;;;15.10;90.80;;;;;;5036570;28;20286;-84
2022/05/03 08:17:28;;;;;;;;;;;15.20;91.80;;;;;;5058559;28;20363;-83
2022/05/03 08:19:54;;;;;;;;;;;15.40;91.60;;;;;;5067441;28;19923;-84
2022/05/03 08:22:19;;;;;;;;;;;15.60;89.30;;;;;;5069159;28;19908;-83
2022/05/03 08:24:45;;;;;;;;;;;15.60;87.90;;;;;;5052501;28;20291;-83
2022/05/03 08:27:11;;;;;;;;;;;15.70;87.20;;;;;;5069102;28;19955;-84
2022/05/03 08:29:36;;;;;;;;;;;15.80;87.00;;;;;;5069071;28;19954;-84
2022/05/03 08:32:02;;;;;;;;;;;15.90;87.00;;;;;;5052326;28;19936;-84
2022/05/03 08:34:28;;;;;;;;;;;16.00;87.60;;;;;;5069213;28;20423;-83
2022/05/03 08:42:35;;;;;;;;;;;16.10;82.20;;;;;;5058405;28;19971;-83
2022/05/03 08:45:01;;;;;;;;;;;16.10;81.40;;;;;;5032486;28;19916;-83
2022/05/03 08:47:28;;;;;;;;;;;16.20;82.00;;;;;;5031979;28;20386;-84
2022/05/03 08:49:53;;;;;;;;;;;16.20;80.30;;;;;;5048828;28;20351;-84
2022/05/03 08:52:20;;;;;;;;;;;16.20;81.40;;;;;;5049123;28;20054;-84
2022/05/03 08:54:46;;;;;;;;;;;16.30;82.30;;;;;;5048817;28;19978;-83
2022/05/03 08:57:11;;;;;;;;;;;16.50;82.80;;;;;;5032877;28;20438;-83
2022/05/03 08:59:37;;;;;;;;;;;16.70;78.60;;;;;;5048866;28;19909;-84
2022/05/03 09:02:04;;;;;;;;;;;16.80;79.60;;;;;;5050872;28;19956;-84
2022/05/03 09:04:29;;;;;;;;;;;16.90;81.20;;;;;;5035974;28;19917;-84
2022/05/03 09:06:55;;;;;;;;;;;17.30;77.70;;;;;;5036074;28;19917;-83
2022/05/03 09:09:21;;;;;;;;;;;17.70;73.10;;;;;;5035730;28;19913;-82
2022/05/03 09:11:47;;;;;;;;;;;18.00;70.80;;;;;;5052438;28;19961;-83
2022/05/03 09:14:14;;;;;;;;;;;18.30;67.80;;;;;;5052249;28;19909;-84
2022/05/03 09:16:52;;;;;;;;;;;18.50;64.10;;;;;;5035582;28;20417;-84
2022/05/03 09:19:25;;;;;;;;;;;18.90;69.60;;;;;;5052129;28;19909;-84
2022/05/03 09:24:49;;;;;;;;;;;19.50;59.70;;;;;;5052738;28;19948;-84
2022/05/03 09:27:19;;;;;;;;;;;19.90;60.40;;;;;;5052083;28;19916;-83
2022/05/03 09:30:03;;;;;;;;;;;20.00;60.30;;;;;;5035455;28;20279;-84
2022/05/03 09:32:35;;;;;;;;;;;20.00;57.40;;;;;;5052081;28;20050;-84
2022/05/03 09:35:00;;;;;;;;;;;19.90;56.90;;;;;;5052010;28;19962;-84
2022/05/03 09:37:42;;;;;;;;;;;19.90;58.80;;;;;;5035096;28;20202;-84
2022/05/03 09:40:08;;;;;;;;;;;19.70;59.80;;;;;;5051709;28;19909;-83
2022/05/03 09:42:35;;;;;;;;;;;19.40;59.30;;;;;;5051872;28;20004;-84
2022/05/03 09:45:02;;;;;;;;;;;19.30;59.00;;;;;;5051869;28;19962;-84
2022/05/03 09:47:28;;;;;;;;;;;19.30;59.50;;;;;;5050741;28;20371;-84
2022/05/03 09:49:54;;;;;;;;;;;19.40;61.60;;;;;;5051279;28;19949;-84
2022/05/03 09:52:27;;;;;;;;;;;19.60;60.20;;;;;;5051534;28;19913;-83
2022/05/03 09:54:55;;;;;;;;;;;19.70;58.10;;;;;;5051765;28;19909;-84
2022/05/03 09:57:21;;;;;;;;;;;19.80;59.50;;;;;;5035102;28;19944;-83
2022/05/03 09:59:48;;;;;;;;;;;19.90;60.00;;;;;;5034832;28;19913;-84
2022/05/03 10:02:15;;;;;;;;;;;19.80;56.20;;;;;;5051442;28;20417;-83
2022/05/03 10:04:40;;;;;;;;;;;19.80;56.90;;;;;;5051402;28;19912;-83
2022/05/03 10:07:06;;;;;;;;;;;19.90;57.60;;;;;;5051324;28;19915;-83
2022/05/03 10:09:32;;;;;;;;;;;19.90;58.20;;;;;;5051199;28;19923;-83
2022/05/03 10:11:58;;;;;;;;;;;19.80;57.80;;;;;;5034296;28;19940;-83
2022/05/03 10:14:24;;;;;;;;;;;19.70;58.40;;;;;;5034652;28;20004;-83
2022/05/03 10:22:18;;;;;;;;;;;19.70;57.00;;;;;;5051965;28;20342;-84
2022/05/03 10:24:56;;;;;;;;;;;19.70;56.60;;;;;;5034482;28;20019;-83
2022/05/03 10:27:22;;;;;;;;;;;19.80;57.80;;;;;;5050747;28;19999;-84
2022/05/03 10:30:24;;;;;;;;;;;20.00;58.20;;;;;;5034171;28;20009;-83
2022/05/03 10:33:08;;;;;;;;;;;20.00;58.60;;;;;;5013044;28;19916;-83
2022/05/03 10:35:34;;;;;;;;;;;19.90;57.40;;;;;;5047343;28;19967;-84
2022/05/03 10:37:59;;;;;;;;;;;19.90;56.50;;;;;;5050614;28;19952;-83
2022/05/03 10:40:30;;;;;;;;;;;19.90;57.80;;;;;;5050752;28;19913;-83
2022/05/03 10:43:06;;;;;;;;;;;20.00;56.60;;;;;;5034233;28;20343;-83
2022/05/03 10:45:39;;;;;;;;;;;20.10;57.80;;;;;;5050568;28;19920;-83
2022/05/03 10:48:20;;;;;;;;;;;20.10;57.80;;;;;;5050414;28;19924;-84
2022/05/03 10:50:47;;;;;;;;;;;20.00;56.20;;;;;;5050687;28;19917;-83
2022/05/03 10:53:17;;;;;;;;;;;19.90;56.00;;;;;;5033907;28;19912;-82
2022/05/03 10:56:01;;;;;;;;;;;19.90;57.90;;;;;;5033865;28;19917;-83
2022/05/03 10:58:31;;;;;;;;;;;19.90;57.60;;;;;;5050160;28;19912;-84
2022/05/03 11:01:00;;;;;;;;;;;19.90;56.10;;;;;;5050358;28;19913;-84
2022/05/03 11:03:25;;;;;;;;;;;19.80;56.80;;;;;;5050304;28;19924;-83
2022/05/03 11:06:10;;;;;;;;;;;19.80;59.50;;;;;;5033529;28;19921;-84
2022/05/03 11:08:36;;;;;;;;;;;19.80;59.10;;;;;;5050030;28;19970;-84
2022/05/03 11:11:01;;;;;;;;;;;19.40;57.60;;;;;;5033536;28;19913;-83
2022/05/03 11:13:40;;;;;;;;;;;19.20;59.20;;;;;;5033519;28;19927;-84
2022/05/03 11:16:18;;;;;;;;;;;19.10;60.10;;;;;;5033437;28;19913;-83
2022/05/03 11:18:44;;;;;;;;;;;19.00;62.30;;;;;;5049818;28;19916;-83
2022/05/03 11:21:16;;;;;;;;;;;18.90;59.30;;;;;;5033412;28;19913;-82
2022/05/03 11:23:51;;;;;;;;;;;18.90;59.60;;;;;;5032499;28;20287;-84
2022/05/03 11:26:21;;;;;;;;;;;18.90;60.80;;;;;;5049814;28;19920;-84
2022/05/03 11:28:48;;;;;;;;;;;18.90;60.20;;;;;;5033194;28;19920;-83
2022/05/03 11:31:20;;;;;;;;;;;18.80;59.60;;;;;;5050010;28;19924;-84
2022/05/03 11:33:52;;;;;;;;;;;18.70;61.20;;;;;;5049786;28;19913;-83
2022/05/03 11:36:19;;;;;;;;;;;18.70;61.40;;;;;;5049859;28;20007;-83
2022/05/03 11:38:47;;;;;;;;;;;18.70;61.20;;;;;;5032920;28;19916;-83
2022/05/03 11:41:12;;;;;;;;;;;18.70;61.60;;;;;;5033118;28;19913;-83
2022/05/03 11:43:38;;;;;;;;;;;18.90;60.70;;;;;;5033071;28;20298;-84
2022/05/03 11:46:03;;;;;;;;;;;19.00;62.70;;;;;;5032786;28;19931;-84
2022/05/03 11:48:29;;;;;;;;;;;19.10;58.30;;;;;;5049336;28;19917;-83
2022/05/03 11:56:26;;;;;;;;;;;19.10;59.50;;;;;;5050042;28;19919;-84
2022/05/03 11:58:52;;;;;;;;;;;19.20;58.40;;;;;;5049166;28;19932;-83
2022/05/03 12:01:18;;;;;;;;;;;19.40;58.10;;;;;;5032748;28;19916;-83
2022/05/03 12:03:48;;;;;;;;;;;19.60;59.00;;;;;;5049723;28;20320;-83
2022/05/03 12:06:15;;;;;;;;;;;19.70;57.40;;;;;;5049205;28;19950;-83
2022/05/03 12:08:40;;;;;;;;;;;19.80;57.20;;;;;;5032705;28;19913;-83
2022/05/03 12:11:15;;;;;;;;;;;19.90;57.60;;;;;;5032740;28;19978;-83
2022/05/03 12:13:41;;;;;;;;;;;20.00;58.80;;;;;;5029300;28;20139;-83
2022/05/03 12:16:08;;;;;;;;;;;20.10;56.00;;;;;;5012886;28;19921;-84
2022/05/03 12:18:34;;;;;;;;;;;20.10;55.10;;;;;;5012677;28;19914;-83
2022/05/03 12:21:06;;;;;;;;;;;20.10;56.60;;;;;;5029389;28;20433;-84
2022/05/03 12:23:31;;;;;;;;;;;20.20;56.00;;;;;;5029340;28;19909;-83
2022/05/03 12:25:58;;;;;;;;;;;20.20;54.90;;;;;;5029092;28;19917;-83
2022/05/03 12:28:36;;;;;;;;;;;20.10;54.90;;;;;;5029348;28;19944;-83
2022/05/03 12:31:03;;;;;;;;;;;20.10;55.50;;;;;;5029255;28;19960;-84
2022/05/03 12:33:30;;;;;;;;;;;19.90;55.90;;;;;;5028708;28;20116;-83
2022/05/03 12:35:56;;;;;;;;;;;19.60;55.70;;;;;;5014870;28;19914;-83
2022/05/03 12:38:23;;;;;;;;;;;19.30;56.70;;;;;;5032971;28;19916;-82
2022/05/03 12:40:51;;;;;;;;;;;19.10;57.70;;;;;;5017396;28;19924;-83
2022/05/03 12:43:18;;;;;;;;;;;18.80;58.00;;;;;;5049862;28;20349;-83
2022/05/03 12:45:56;;;;;;;;;;;18.60;58.10;;;;;;5052670;28;19917;-84
2022/05/03 12:48:21;;;;;;;;;;;18.40;58.90;;;;;;5052947;28;20348;-83
2022/05/03 12:50:47;;;;;;;;;;;18.20;60.70;;;;;;5052868;28;19916;-83
2022/05/03 12:53:13;;;;;;;;;;;18.00;62.20;;;;;;5036167;28;20398;-83
2022/05/03 12:55:39;;;;;;;;;;;17.90;63.10;;;;;;5052662;28;20287;-83
2022/05/03 12:58:22;;;;;;;;;;;17.70;62.80;;;;;;5035921;28;19920;-82
2022/05/03 13:00:49;;;;;;;;;;;17.60;63.30;;;;;;5038579;28;19999;-84
2022/05/03 13:03:15;;;;;;;;;;;17.40;64.10;;;;;;5035951;28;19913;-83
2022/05/03 13:05:41;;;;;;;;;;;17.30;64.50;;;;;;5036809;28;20294;-84
2022/05/03 13:08:06;;;;;;;;;;;17.10;65.00;;;;;;5036318;28;19923;-84
2022/05/03 13:10:33;;;;;;;;;;;16.90;66.10;;;;;;5052431;28;19938;-83
2022/05/03 13:13:00;;;;;;;;;;;16.80;67.10;;;;;;5035946;28;20303;-83
2022/05/03 13:15:25;;;;;;;;;;;16.70;68.30;;;;;;5052402;28;19917;-83
2022/05/03 13:17:51;;;;;;;;;;;16.70;69.20;;;;;;5052217;28;20492;-83
2022/05/03 13:20:16;;;;;;;;;;;16.60;69.90;;;;;;5035304;28;19913;-83
2022/05/03 13:22:42;;;;;;;;;;;16.60;70.80;;;;;;5035670;28;19973;-83
2022/05/03 13:25:08;;;;;;;;;;;16.50;71.30;;;;;;5052175;28;20290;-83
2022/05/03 13:27:33;;;;;;;;;;;16.40;73.30;;;;;;5053575;28;20369;-83
2022/05/03 13:29:59;;;;;;;;;;;16.30;73.00;;;;;;5035449;28;19913;-83
2022/05/03 13:32:24;;;;;;;;;;;16.30;75.20;;;;;;5035764;28;19917;-83
2022/05/03 13:34:50;;;;;;;;;;;16.20;76.30;;;;;;5035284;28;19963;-83
2022/05/03 13:42:44;;;;;;;;;;;16.30;81.20;;;;;;5052448;28;19963;-83
2022/05/03 13:45:10;;;;;;;;;;;16.30;81.10;;;;;;5035049;28;19920;-83
2022/05/03 13:47:35;;;;;;;;;;;16.30;81.90;;;;;;5051659;23;19942;-85
2022/05/03 13:50:01;;;;;;;;;;;16.30;84.30;;;;;;5071593;28;20332;-85
2022/05/03 13:52:26;;;;;;;;;;;16.40;83.10;;;;;;5072999;28;19916;-84
2022/05/03 13:54:52;;;;;;;;;;;16.40;86.60;;;;;;5072770;28;19927;-85
2022/05/03 13:57:17;;;;;;;;;;;16.50;90.40;;;;;;5072968;28;19912;-85
2022/05/03 13:59:43;;;;;;;;;;;16.50;90.70;;;;;;5055595;28;20254;-86
2022/05/03 14:02:10;;;;;;;;;;;16.60;89.70;;;;;;5056092;28;19970;-85
2022/05/03 14:04:36;;;;;;;;;;;16.70;86.20;;;;;;5059932;28;19916;-84
2022/05/03 14:07:01;;;;;;;;;;;16.70;87.10;;;;;;5054239;28;20451;-85
2022/05/03 14:09:27;;;;;;;;;;;16.80;85.80;;;;;;5071732;28;19917;-84
2022/05/03 14:11:52;;;;;;;;;;;16.80;85.30;;;;;;5093130;28;19991;-85
2022/05/03 14:14:18;;;;;;;;;;;16.80;85.60;;;;;;5074148;28;20398;-84
2022/05/03 14:16:43;;;;;;;;;;;16.90;85.20;;;;;;5057336;28;19924;-84
2022/05/03 14:19:10;;;;;;;;;;;16.90;86.50;;;;;;5056906;28;19927;-85
2022/05/03 14:21:36;;;;;;;;;;;16.90;87.10;;;;;;5057570;28;19923;-86
2022/05/03 14:24:01;;;;;;;;;;;17.00;88.10;;;;;;5057335;28;20364;-88
2022/05/03 14:26:27;;;;;;;;;;;17.10;85.80;;;;;;5057291;28;19920;-86
2022/05/03 14:28:53;;;;;;;;;;;17.20;85.80;;;;;;5073450;28;19919;-86
2022/05/03 14:31:20;;;;;;;;;;;17.40;86.00;;;;;;5073898;28;19912;-86
2022/05/03 14:33:45;;;;;;;;;;;17.60;84.80;;;;;;5073890;28;19916;-86
2022/05/03 14:36:11;;;;;;;;;;;17.80;80.00;;;;;;5070753;28;20345;-86
2022/05/03 14:38:36;;;;;;;;;;;18.00;73.70;;;;;;5053143;28;20010;-87
2022/05/03 14:41:02;;;;;;;;;;;18.00;72.00;;;;;;5036765;28;19919;-86
2022/05/03 14:43:27;;;;;;;;;;;18.20;72.50;;;;;;5040876;28;20373;-87
2022/05/03 14:45:53;;;;;;;;;;;18.20;73.70;;;;;;5074098;28;19920;-86
2022/05/03 14:48:18;;;;;;;;;;;18.30;74.60;;;;;;5054988;28;19965;-86
2022/05/03 14:50:44;;;;;;;;;;;18.40;76.20;;;;;;5041484;28;20620;-86
2022/05/03 14:53:10;;;;;;;;;;;18.50;76.80;;;;;;5073206;28;19954;-86
2022/05/03 14:55:36;;;;;;;;;;;18.50;75.50;;;;;;5039039;28;19913;-86
2022/05/03 15:03:32;;;;;;;;;;;18.70;78.10;;;;;;5058491;28;19923;-86
2022/05/03 15:05:57;;;;;;;;;;;18.80;79.00;;;;;;5055162;28;19912;-86
2022/05/03 15:08:23;;;;;;;;;;;18.90;71.10;;;;;;5055254;28;19961;-87
2022/05/03 15:10:48;;;;;;;;;;;18.90;73.50;;;;;;5039313;28;19991;-86